Time;durP1;ratioP1;P1;durP2;ratioP2;P2;SDS_P1;SDS_P2;PMS_P1;PMS_P2;Temp;Humidity;BMP_temperature;BMP_pressure;BME280_temperature;BME280_humidity;BME280_pressure;Samples;Min_cycle;Max_cycle;Signal;HPM_P1;HPM_P2
2023/01/07 00:01:17;;;;;;;21.48;11.75;;;10.60;99.90;;;;;;5035576;28;20087;-81
2023/01/07 00:03:43;;;;;;;23.65;12.70;;;10.60;99.90;;;;;;5035717;28;20079;-81
2023/01/07 00:06:12;;;;;;;22.33;12.45;;;10.60;99.90;;;;;;5036660;28;20034;-80
2023/01/07 00:08:39;;;;;;;23.15;12.00;;;10.60;99.90;;;;;;5030466;28;20037;-82
2023/01/07 00:11:11;;;;;;;22.15;11.98;;;10.60;99.90;;;;;;5034949;28;20021;-81
2023/01/07 00:13:37;;;;;;;20.75;12.18;;;10.60;99.90;;;;;;5030790;28;20082;-80
2023/01/07 00:16:05;;;;;;;20.77;11.27;;;10.60;99.90;;;;;;5035362;28;20408;-84
2023/01/07 00:18:31;;;;;;;19.20;10.95;;;10.60;99.90;;;;;;5035476;28;20029;-81
2023/01/07 00:20:58;;;;;;;20.90;10.73;;;10.60;99.90;;;;;;5036577;28;20025;-81
2023/01/07 00:23:25;;;;;;;19.25;10.68;;;10.50;99.90;;;;;;5030872;28;20444;-81
2023/01/07 00:25:51;;;;;;;;;;;10.50;99.90;;;;;;5036156;28;20038;-81
2023/01/07 00:28:17;;;;;;;16.67;9.98;;;10.50;99.90;;;;;;5031973;28;20591;-82
2023/01/07 00:30:43;;;;;;;18.77;10.23;;;10.40;99.90;;;;;;5035759;28;20412;-79
2023/01/07 00:33:13;;;;;;;18.30;10.10;;;10.40;99.90;;;;;;5033620;28;20029;-82
2023/01/07 00:35:39;;;;;;;17.42;9.18;;;10.40;99.90;;;;;;5012591;28;20030;-80
2023/01/07 00:38:05;;;;;;;15.48;8.85;;;10.40;99.90;;;;;;5033281;28;20052;-87
2023/01/07 00:40:32;;;;;;;15.40;9.18;;;10.40;99.90;;;;;;5033609;28;20420;-80
2023/01/07 00:43:03;;;;;;;16.33;9.13;;;10.30;99.90;;;;;;5033299;28;20057;-82
2023/01/07 00:45:31;;;;;;;17.20;9.18;;;10.40;99.90;;;;;;5034557;28;20033;-80
2023/01/07 00:47:58;;;;;;;20.90;9.02;;;10.40;99.90;;;;;;5034559;28;20067;-80
2023/01/07 00:50:26;;;;;;;;;;;10.40;99.90;;;;;;5036169;28;20025;-80
2023/01/07 00:52:51;;;;;;;17.80;8.40;;;10.40;99.90;;;;;;5030335;28;19909;-80
2023/01/07 00:55:17;;;;;;;14.67;8.50;;;10.40;99.90;;;;;;5034627;28;20340;-80
2023/01/07 00:57:43;;;;;;;18.20;9.10;;;10.40;99.90;;;;;;5031997;28;20028;-81
2023/01/07 01:00:12;;;;;;;15.32;9.45;;;10.40;99.90;;;;;;5033600;28;20037;-79
2023/01/07 01:02:38;;;;;;;16.33;9.40;;;10.40;99.90;;;;;;5035289;28;20436;-79
2023/01/07 01:05:05;;;;;;;17.08;8.57;;;10.40;99.90;;;;;;5029633;28;20493;-81
2023/01/07 01:07:31;;;;;;;;;;;10.40;99.90;;;;;;5034506;28;20041;-80
2023/01/07 01:09:57;;;;;;;16.10;8.52;;;10.40;99.90;;;;;;5034190;28;19940;-80
2023/01/07 01:12:23;;;;;;;19.57;8.60;;;10.40;99.90;;;;;;5034206;28;20021;-80
2023/01/07 01:14:48;;;;;;;14.60;8.63;;;10.40;99.90;;;;;;5035166;28;20026;-80
2023/01/07 01:17:14;;;;;;;17.70;9.47;;;10.40;99.90;;;;;;5034414;28;20025;-81
2023/01/07 01:19:40;;;;;;;14.10;8.43;;;10.40;99.90;;;;;;5032701;28;20029;-81
2023/01/07 01:22:05;;;;;;;16.33;8.40;;;10.40;99.90;;;;;;5016800;28;20056;-81
2023/01/07 01:24:31;;;;;;;16.80;9.30;;;10.40;99.90;;;;;;5034959;28;20025;-81
2023/01/07 01:26:57;;;;;;;14.60;8.67;;;10.40;99.90;;;;;;5017398;28;20041;-80
2023/01/07 01:29:22;;;;;;;17.10;8.90;;;10.40;99.90;;;;;;5035477;28;20114;-84
2023/01/07 01:31:49;;;;;;;18.27;9.57;;;10.40;99.90;;;;;;5034836;28;20404;-83
2023/01/07 01:34:14;;;;;;;13.95;8.40;;;10.40;99.90;;;;;;5034590;28;20053;-80
2023/01/07 01:36:40;;;;;;;21.80;8.97;;;10.40;99.90;;;;;;5034111;28;20050;-80
2023/01/07 01:39:06;;;;;;;17.67;7.87;;;10.40;99.90;;;;;;5027881;28;20080;-85
2023/01/07 01:41:32;;;;;;;18.90;8.63;;;10.40;99.90;;;;;;5031777;28;20053;-81
2023/01/07 01:43:58;;;;;;;13.13;8.35;;;10.40;99.90;;;;;;5032012;28;20412;-80
2023/01/07 01:46:33;;;;;;;14.10;8.07;;;10.40;99.90;;;;;;5029375;28;20037;-80
2023/01/07 01:49:11;;;;;;;15.48;7.60;;;10.40;99.90;;;;;;5033620;28;20037;-80
2023/01/07 01:51:41;;;;;;;15.45;7.13;;;10.40;99.90;;;;;;5026263;28;20111;-81
2023/01/07 01:54:10;;;;;;;10.95;7.72;;;10.40;99.90;;;;;;5032733;28;20031;-85
2023/01/07 01:56:41;;;;;;;16.38;7.22;;;10.40;99.90;;;;;;5034376;28;20072;-81
2023/01/07 01:59:12;;;;;;;12.35;7.32;;;10.30;99.90;;;;;;5029839;28;20026;-81
2023/01/07 02:01:38;;;;;;;10.88;7.20;;;10.30;99.90;;;;;;5033652;28;20096;-81
2023/01/07 02:04:08;;;;;;;11.50;7.07;;;10.30;99.90;;;;;;5032082;28;20157;-81
2023/01/07 02:06:39;;;;;;;12.50;7.28;;;10.30;99.90;;;;;;5030030;28;20029;-80
2023/01/07 02:09:05;;;;;;;15.23;7.55;;;10.30;99.90;;;;;;5031795;28;20491;-84
2023/01/07 02:11:53;;;;;;;17.20;9.03;;;10.30;99.90;;;;;;5032618;28;20072;-80
2023/01/07 02:14:29;;;;;;;13.65;7.72;;;10.20;99.90;;;;;;5033264;28;20029;-80
2023/01/07 02:16:55;;;;;;;;;;;10.30;99.90;;;;;;5029613;28;20017;-80
2023/01/07 02:19:57;;;;;;;11.83;7.37;;;10.30;99.90;;;;;;5030768;28;19935;-80
2023/01/07 02:22:38;;;;;;;17.48;7.90;;;10.30;99.90;;;;;;5028663;28;20021;-80
2023/01/07 02:25:36;;;;;;;14.15;7.50;;;10.20;99.90;;;;;;5030858;28;20022;-83
2023/01/07 02:28:26;;;;;;;11.88;7.85;;;10.20;99.90;;;;;;5030798;28;20026;-79
2023/01/07 02:31:01;;;;;;;14.07;7.50;;;10.10;99.90;;;;;;5032057;28;20100;-80
2023/01/07 02:33:35;;;;;;;14.75;8.32;;;10.10;99.90;;;;;;5029598;28;20048;-80
2023/01/07 02:36:24;;;;;;;15.23;8.20;;;10.00;99.90;;;;;;5032469;28;20124;-80
2023/01/07 02:38:53;;;;;;;14.95;7.68;;;10.00;99.90;;;;;;5030751;28;20060;-79
2023/01/07 02:41:31;;;;;;;13.15;7.80;;;9.90;99.90;;;;;;5028224;28;20057;-80
2023/01/07 02:44:04;;;;;;;15.15;7.68;;;9.90;99.90;;;;;;5031465;28;20383;-80
2023/01/07 02:46:45;;;;;;;12.45;7.63;;;9.90;99.90;;;;;;5028608;28;20032;-80
2023/01/07 02:49:15;;;;;;;20.75;8.68;;;9.90;99.90;;;;;;5030139;28;20034;-81
2023/01/07 02:51:42;;;;;;;12.82;7.85;;;9.90;99.90;;;;;;5006227;28;20037;-80
2023/01/07 02:54:13;;;;;;;13.88;8.25;;;9.90;99.90;;;;;;5030012;28;20451;-83
2023/01/07 02:57:13;;;;;;;13.45;7.32;;;10.00;99.90;;;;;;5027947;28;20424;-80
2023/01/07 03:00:12;;;;;;;15.60;8.57;;;9.90;99.90;;;;;;5028741;28;20060;-80
2023/01/07 03:03:15;;;;;;;14.15;7.93;;;9.80;99.90;;;;;;5033948;28;20041;-80
2023/01/07 03:05:51;;;;;;;18.90;7.68;;;9.80;99.90;;;;;;5022765;28;20032;-81
2023/01/07 03:08:19;;;;;;;14.35;8.10;;;9.80;99.90;;;;;;5028747;28;20030;-80
2023/01/07 03:10:53;;;;;;;11.18;7.47;;;9.70;99.90;;;;;;5031618;28;20021;-80
2023/01/07 03:13:23;;;;;;;12.20;7.60;;;9.70;99.90;;;;;;5036770;28;20047;-80
2023/01/07 03:16:01;;;;;;;17.60;8.23;;;9.70;99.90;;;;;;5037897;28;20112;-80
2023/01/07 03:18:29;;;;;;;14.52;8.13;;;9.60;99.90;;;;;;5028351;28;20030;-80
2023/01/07 03:21:10;;;;;;;13.88;7.05;;;9.60;99.90;;;;;;5037298;28;20159;-80
2023/01/07 03:23:41;;;;;;;13.93;7.35;;;9.60;99.90;;;;;;5035822;28;20029;-80
2023/01/07 03:26:09;;;;;;;12.75;8.00;;;9.60;99.90;;;;;;5036788;28;20483;-84
2023/01/07 03:28:40;;;;;;;16.17;7.65;;;9.60;99.90;;;;;;5035577;28;20030;-80
2023/01/07 03:31:08;;;;;;;12.90;7.13;;;9.60;99.90;;;;;;5036313;28;20032;-80
2023/01/07 03:33:41;;;;;;;14.15;7.78;;;9.60;99.90;;;;;;5031628;28;20017;-80
2023/01/07 03:36:11;;;;;;;17.45;7.20;;;9.60;99.90;;;;;;5034686;28;20051;-81
2023/01/07 03:38:39;;;;;;;14.13;7.20;;;9.60;99.90;;;;;;5037257;28;20109;-85
2023/01/07 03:41:04;;;;;;;15.57;7.22;;;9.60;99.90;;;;;;5036865;28;20037;-83
2023/01/07 03:43:30;;;;;;;13.20;7.17;;;9.60;99.90;;;;;;5031596;28;20029;-83
2023/01/07 03:45:57;;;;;;;17.77;6.97;;;9.60;99.90;;;;;;5033091;28;20425;-84
2023/01/07 03:48:23;;;;;;;18.10;7.80;;;9.50;99.90;;;;;;5029644;28;20108;-85
2023/01/07 03:50:49;;;;;;;11.93;6.67;;;9.50;99.90;;;;;;5031761;28;20452;-82
2023/01/07 03:53:14;;;;;;;12.57;7.27;;;9.50;99.90;;;;;;5037941;28;20025;-83
2023/01/07 03:55:40;;;;;;;11.90;6.30;;;9.50;99.90;;;;;;5036290;28;20035;-85
2023/01/07 03:58:06;;;;;;;11.97;6.97;;;9.50;99.90;;;;;;5029778;28;20026;-86
2023/01/07 04:00:32;;;;;;;14.57;6.70;;;9.50;99.90;;;;;;5026016;28;20060;-83
2023/01/07 04:02:58;;;;;;;10.45;6.82;;;9.50;99.90;;;;;;5035578;28;20108;-82
2023/01/07 04:05:23;;;;;;;14.93;6.33;;;9.50;99.90;;;;;;5030750;28;20041;-82
2023/01/07 04:07:49;;;;;;;12.67;6.87;;;9.50;99.90;;;;;;5035028;28;20036;-82
2023/01/07 04:10:15;;;;;;;16.30;6.80;;;9.50;99.90;;;;;;5032081;28;20375;-83
2023/01/07 04:12:40;;;;;;;14.63;6.77;;;9.50;99.90;;;;;;5035619;28;20025;-82
2023/01/07 04:15:07;;;;;;;14.90;6.43;;;9.60;99.90;;;;;;5037442;28;20025;-81
2023/01/07 04:17:33;;;;;;;14.93;6.40;;;9.60;99.90;;;;;;5036433;28;20083;-83
2023/01/07 04:19:58;;;;;;;11.83;6.03;;;9.60;99.90;;;;;;5033025;28;20025;-82
2023/01/07 04:22:24;;;;;;;13.40;6.43;;;9.60;99.90;;;;;;5032692;28;20029;-84
2023/01/07 04:24:49;;;;;;;17.10;5.87;;;9.60;99.90;;;;;;5035257;28;20029;-83
2023/01/07 04:27:16;;;;;;;12.43;5.70;;;9.50;99.90;;;;;;5035941;28;20029;-82
2023/01/07 04:29:42;;;;;;;14.13;6.18;;;9.50;99.90;;;;;;5036592;28;20053;-84
2023/01/07 04:32:07;;;;;;;16.53;6.80;;;9.50;99.90;;;;;;5033613;28;20057;-83
2023/01/07 04:34:33;;;;;;;13.93;5.77;;;9.50;99.90;;;;;;5036544;28;20025;-83
2023/01/07 04:36:59;;;;;;;11.97;6.23;;;9.60;99.90;;;;;;5035300;28;20079;-83
2023/01/07 04:39:24;;;;;;;11.13;6.10;;;9.60;99.90;;;;;;5035852;28;20025;-85
2023/01/07 04:41:50;;;;;;;24.53;6.50;;;9.60;99.90;;;;;;5036389;28;20050;-85
2023/01/07 04:44:16;;;;;;;15.27;6.37;;;9.60;99.90;;;;;;5037903;28;20091;-82
2023/01/07 04:46:42;;;;;;;13.18;5.70;;;9.60;99.90;;;;;;5031446;28;20026;-85
2023/01/07 04:49:08;;;;;;;18.27;6.45;;;9.60;99.90;;;;;;5035177;28;20306;-84
2023/01/07 04:51:34;;;;;;;11.03;5.80;;;9.70;99.90;;;;;;5030265;28;20082;-85
2023/01/07 04:54:00;;;;;;;18.30;5.87;;;9.60;99.90;;;;;;5034783;28;20080;-85
2023/01/07 04:56:25;;;;;;;16.03;6.13;;;9.60;99.90;;;;;;5028201;28;20017;-85
2023/01/07 04:58:51;;;;;;;15.83;6.53;;;9.70;99.90;;;;;;5032143;28;20036;-83
2023/01/07 05:01:17;;;;;;;14.73;6.67;;;9.70;99.90;;;;;;5033857;28;20128;-83
2023/01/07 05:03:43;;;;;;;15.07;6.00;;;9.70;99.90;;;;;;5035410;28;20395;-86
2023/01/07 05:06:09;;;;;;;13.23;6.73;;;9.70;99.90;;;;;;5031273;28;20120;-85
2023/01/07 05:08:34;;;;;;;17.20;5.97;;;9.70;99.90;;;;;;5027671;28;20037;-82
2023/01/07 05:11:01;;;;;;;15.07;6.77;;;9.70;99.90;;;;;;5032195;28;20365;-82
2023/01/07 05:13:26;;;;;;;11.40;6.15;;;9.70;99.90;;;;;;5024489;28;20347;-83
2023/01/07 05:15:52;;;;;;;14.20;6.13;;;9.80;99.90;;;;;;5032279;28;20033;-83
2023/01/07 05:18:18;;;;;;;11.63;7.13;;;9.70;99.90;;;;;;5028488;28;20037;-80
2023/01/07 05:20:46;;;;;;;16.50;6.83;;;9.70;99.90;;;;;;5027167;28;20374;-83
2023/01/07 05:23:11;;;;;;;10.55;5.78;;;9.70;99.90;;;;;;5032636;28;20150;-81
2023/01/07 05:25:37;;;;;;;14.63;6.03;;;9.70;99.90;;;;;;5034715;28;20037;-85
2023/01/07 05:28:03;;;;;;;11.37;5.50;;;9.70;99.90;;;;;;5034792;28;20033;-84
2023/01/07 05:30:28;;;;;;;13.67;5.87;;;9.70;99.90;;;;;;5030346;28;20025;-85
2023/01/07 05:32:54;;;;;;;11.90;6.07;;;9.70;99.90;;;;;;5029511;28;20021;-85
2023/01/07 05:35:20;;;;;;;16.90;6.00;;;9.70;99.90;;;;;;5031336;28;20049;-84
2023/01/07 05:37:45;;;;;;;15.17;6.33;;;9.70;99.90;;;;;;5035040;28;20041;-84
2023/01/07 05:40:11;;;;;;;10.13;5.57;;;9.60;99.90;;;;;;5033928;28;20040;-83
2023/01/07 05:42:37;;;;;;;11.63;6.20;;;9.60;99.90;;;;;;5029695;28;20520;-86
2023/01/07 05:45:04;;;;;;;13.80;5.40;;;9.60;99.90;;;;;;5034290;28;20116;-84
2023/01/07 05:47:29;;;;;;;10.45;5.35;;;9.60;99.90;;;;;;5023542;28;20033;-84
2023/01/07 05:49:55;;;;;;;14.93;6.20;;;9.70;99.90;;;;;;5031040;28;20384;-83
2023/01/07 05:52:21;;;;;;;10.70;6.03;;;9.70;99.90;;;;;;5031812;28;20087;-82
2023/01/07 05:54:46;;;;;;;16.27;5.87;;;9.70;99.90;;;;;;5030199;28;20026;-88
2023/01/07 05:57:12;;;;;;;11.40;5.93;;;9.70;99.90;;;;;;5024702;28;20040;-85
2023/01/07 05:59:37;;;;;;;15.37;6.13;;;9.70;99.90;;;;;;5025774;28;20030;-84
2023/01/07 06:02:04;;;;;;;15.30;5.57;;;9.70;99.90;;;;;;5023876;28;20026;-85
2023/01/07 06:04:29;;;;;;;17.00;6.15;;;9.70;99.90;;;;;;5019386;28;20030;-84
2023/01/07 06:06:55;;;;;;;11.33;6.10;;;9.70;99.90;;;;;;5023058;28;20121;-85
2023/01/07 06:09:21;;;;;;;12.27;6.07;;;9.70;99.90;;;;;;5024221;28;20417;-82
2023/01/07 06:11:47;;;;;;;11.13;5.60;;;9.70;99.90;;;;;;5024104;28;20823;-82
2023/01/07 06:14:13;;;;;;;8.97;5.47;;;9.60;99.90;;;;;;5022165;28;20061;-81
2023/01/07 06:16:39;;;;;;;11.90;5.65;;;9.60;99.90;;;;;;5026001;28;20312;-83
2023/01/07 06:19:05;;;;;;;17.20;5.38;;;9.60;99.90;;;;;;5021389;28;20038;-86
2023/01/07 06:21:31;;;;;;;14.17;5.03;;;9.70;99.90;;;;;;5026829;28;20034;-84
2023/01/07 06:23:56;;;;;;;15.57;5.50;;;9.60;99.90;;;;;;5026617;28;20096;-81
2023/01/07 06:26:22;;;;;;;8.27;5.07;;;9.70;99.90;;;;;;5023026;28;20025;-82
2023/01/07 06:28:49;;;;;;;14.50;5.27;;;9.70;99.90;;;;;;5028545;28;20060;-81
2023/01/07 06:31:15;;;;;;;8.00;5.03;;;9.60;99.90;;;;;;5024888;28;20068;-83
2023/01/07 06:33:41;;;;;;;8.17;4.30;;;9.70;99.90;;;;;;5028831;28;20439;-83
2023/01/07 06:36:07;;;;;;;9.97;4.73;;;9.60;99.90;;;;;;5027340;28;20527;-81
2023/01/07 06:38:33;;;;;;;7.70;4.32;;;9.60;99.90;;;;;;5028587;28;20073;-83
2023/01/07 06:41:00;;;;;;;9.83;4.67;;;9.50;99.90;;;;;;5029832;28;20440;-83
2023/01/07 06:43:26;;;;;;;9.68;3.95;;;9.50;99.90;;;;;;5021697;28;20087;-83
2023/01/07 06:45:51;;;;;;;14.13;4.30;;;9.50;99.90;;;;;;5030721;28;20112;-81
2023/01/07 06:48:17;;;;;;;8.93;3.83;;;9.50;99.90;;;;;;5028935;28;20041;-83
2023/01/07 06:50:44;;;;;;;15.67;3.97;;;9.50;99.90;;;;;;5028162;28;20018;-83
2023/01/07 06:53:09;;;;;;;8.00;3.80;;;9.40;99.90;;;;;;5026101;28;20106;-83
2023/01/07 06:55:35;;;;;;;11.00;4.47;;;9.40;99.90;;;;;;5028597;28;20163;-82
2023/01/07 06:58:01;;;;;;;7.00;3.67;;;9.30;99.90;;;;;;5021994;28;20041;-83
2023/01/07 07:00:27;;;;;;;6.80;3.43;;;9.30;99.90;;;;;;5025946;28;20025;-83
2023/01/07 07:02:53;;;;;;;5.53;4.00;;;9.40;99.90;;;;;;5026086;28;20033;-79
2023/01/07 07:05:19;;;;;;;6.93;3.57;;;9.40;99.90;;;;;;5028056;28;20029;-79
2023/01/07 07:07:44;;;;;;;7.03;3.03;;;9.30;99.90;;;;;;5026637;28;20155;-79
2023/01/07 07:10:10;;;;;;;5.83;3.20;;;9.30;99.90;;;;;;5026703;28;20321;-79
2023/01/07 07:12:37;;;;;;;6.70;3.70;;;9.30;99.90;;;;;;5022560;28;20325;-82
2023/01/07 07:15:07;;;;;;;24.25;3.80;;;9.30;99.90;;;;;;5027655;28;20030;-79
2023/01/07 07:17:33;;;;;;;5.45;3.25;;;9.30;99.90;;;;;;5031753;28;20494;-85
2023/01/07 07:19:59;;;;;;;5.53;2.87;;;9.30;99.90;;;;;;5027463;28;20026;-79
2023/01/07 07:22:25;;;;;;;6.67;3.03;;;9.30;99.90;;;;;;5029993;28;20033;-83
2023/01/07 07:24:50;;;;;;;5.17;2.90;;;9.20;99.90;;;;;;5009634;28;20451;-79
2023/01/07 07:27:16;;;;;;;6.27;2.63;;;9.20;99.90;;;;;;5022126;28;20397;-79
2023/01/07 07:29:42;;;;;;;7.80;3.00;;;9.20;99.90;;;;;;5023547;28;20356;-80
2023/01/07 07:32:08;;;;;;;3.83;2.40;;;9.20;99.90;;;;;;5026543;28;20068;-80
2023/01/07 07:34:33;;;;;;;9.00;2.30;;;9.20;99.90;;;;;;5023263;28;20042;-80
2023/01/07 07:36:59;;;;;;;6.77;3.07;;;9.20;99.90;;;;;;5027211;28;20393;-79
2023/01/07 07:39:25;;;;;;;6.77;2.90;;;9.20;99.90;;;;;;5029418;28;20025;-80
2023/01/07 07:41:52;;;;;;;5.25;2.58;;;9.20;99.90;;;;;;5030783;28;20049;-80
2023/01/07 07:44:17;;;;;;;5.28;2.17;;;9.20;99.90;;;;;;5024586;28;20041;-79
2023/01/07 07:46:43;;;;;;;8.60;2.63;;;9.30;99.90;;;;;;5024253;28;20439;-79
2023/01/07 07:49:10;;;;;;;5.07;2.53;;;9.40;99.90;;;;;;5025242;28;20092;-80
2023/01/07 07:51:36;;;;;;;3.15;2.00;;;9.40;99.90;;;;;;5021848;28;20018;-81
2023/01/07 07:54:02;;;;;;;5.53;2.90;;;9.40;99.90;;;;;;5024303;28;20306;-81
2023/01/07 07:56:28;;;;;;;3.57;2.40;;;9.50;99.90;;;;;;5028879;28;20470;-80
2023/01/07 07:58:53;;;;;;;3.07;1.90;;;9.50;99.90;;;;;;5032681;28;20444;-80
2023/01/07 08:01:19;;;;;;;6.97;2.27;;;9.60;99.90;;;;;;5033476;28;20034;-81
2023/01/07 08:03:45;;;;;;;5.93;1.63;;;9.60;99.90;;;;;;5026612;28;20103;-79
2023/01/07 08:06:11;;;;;;;11.20;1.87;;;9.60;99.90;;;;;;5033339;28;20112;-84
2023/01/07 08:08:37;;;;;;;6.10;1.75;;;9.70;99.90;;;;;;5034114;28;20030;-80
2023/01/07 08:11:03;;;;;;;6.17;2.03;;;9.70;99.90;;;;;;5030385;28;20083;-79
2023/01/07 08:13:30;;;;;;;4.97;1.70;;;9.60;99.90;;;;;;5027752;28;20321;-81
2023/01/07 08:15:56;;;;;;;5.75;2.03;;;9.70;99.90;;;;;;5034212;28;20064;-81
2023/01/07 08:18:22;;;;;;;9.30;1.73;;;9.70;99.90;;;;;;5033655;28;20052;-83
2023/01/07 08:20:48;;;;;;;5.10;1.42;;;9.80;99.90;;;;;;5034716;28;20048;-80
2023/01/07 08:23:15;;;;;;;10.27;1.88;;;9.80;99.90;;;;;;5029949;28;20425;-80
2023/01/07 08:25:41;;;;;;;2.83;1.70;;;9.80;99.90;;;;;;5029742;28;20041;-80
2023/01/07 08:28:08;;;;;;;1.93;1.23;;;9.80;99.90;;;;;;5033249;28;20038;-81
2023/01/07 08:30:34;;;;;;;3.22;1.48;;;9.90;99.90;;;;;;5035333;28;20022;-82
2023/01/07 08:32:59;;;;;;;6.70;1.43;;;9.90;99.90;;;;;;5035485;28;20025;-79
2023/01/07 08:35:25;;;;;;;4.10;1.43;;;9.90;99.90;;;;;;5035337;28;20560;-83
2023/01/07 08:37:51;;;;;;;5.37;1.90;;;9.90;99.90;;;;;;5027878;28;20041;-81
2023/01/07 08:40:17;;;;;;;5.23;1.27;;;9.90;99.90;;;;;;5032779;28;20037;-81
2023/01/07 08:42:42;;;;;;;2.93;1.50;;;9.90;99.90;;;;;;5035384;28;20045;-82
2023/01/07 08:45:09;;;;;;;13.33;1.60;;;9.90;99.90;;;;;;5032874;28;20029;-81
2023/01/07 08:47:35;;;;;;;4.82;1.52;;;9.90;99.90;;;;;;5036422;28;20092;-81
2023/01/07 08:50:02;;;;;;;5.60;1.20;;;9.90;99.90;;;;;;5035211;28;20029;-84
2023/01/07 08:52:27;;;;;;;7.05;1.40;;;9.90;99.90;;;;;;5034481;28;20117;-81
2023/01/07 08:54:53;;;;;;;1.67;1.00;;;9.90;99.90;;;;;;5032756;28;20428;-80
2023/01/07 08:57:19;;;;;;;12.53;2.20;;;9.90;99.90;;;;;;5035938;28;20320;-80
2023/01/07 08:59:44;;;;;;;1.47;1.00;;;9.90;99.90;;;;;;5032838;28;20014;-84
2023/01/07 09:02:13;;;;;;;2.33;1.27;;;10.00;99.90;;;;;;5035399;28;20325;-80
2023/01/07 09:04:39;;;;;;;3.00;1.20;;;10.00;99.90;;;;;;5033057;28;20539;-81
2023/01/07 09:07:04;;;;;;;2.93;1.20;;;10.00;99.90;;;;;;5033752;28;20029;-81
2023/01/07 09:09:30;;;;;;;4.53;1.20;;;10.00;99.90;;;;;;5030884;28;20036;-82
2023/01/07 09:11:56;;;;;;;2.83;1.00;;;9.90;99.90;;;;;;5034882;28;20037;-81
2023/01/07 09:14:21;;;;;;;2.17;1.10;;;10.00;99.90;;;;;;5034366;28;20033;-83
2023/01/07 09:16:47;;;;;;;3.30;1.10;;;10.00;99.90;;;;;;5026429;28;20041;-80
2023/01/07 09:19:13;;;;;;;1.50;0.90;;;10.00;99.90;;;;;;5035511;28;20105;-80
2023/01/07 09:21:38;;;;;;;2.20;1.50;;;10.00;99.90;;;;;;5033386;28;20029;-82
2023/01/07 09:24:04;;;;;;;0.97;0.80;;;10.10;99.90;;;;;;5034365;28;20056;-80
2023/01/07 09:26:30;;;;;;;1.57;1.00;;;10.00;99.90;;;;;;5007868;28;20030;-79
2023/01/07 09:28:56;;;;;;;2.07;1.10;;;10.10;99.90;;;;;;5035137;28;20367;-83
2023/01/07 09:31:21;;;;;;;1.53;0.97;;;10.10;99.90;;;;;;5034674;28;20029;-82
2023/01/07 09:33:47;;;;;;;1.30;0.90;;;10.10;99.90;;;;;;5034302;28;20371;-81
2023/01/07 09:36:13;;;;;;;0.93;0.80;;;10.20;99.90;;;;;;5034890;28;20029;-80
2023/01/07 09:38:39;;;;;;;2.40;1.10;;;10.20;99.90;;;;;;5033228;28;20282;-83
2023/01/07 09:41:25;;;;;;;5.27;1.10;;;10.20;99.90;;;;;;5034024;28;20417;-83
2023/01/07 09:43:55;;;;;;;0.95;0.85;;;10.30;99.90;;;;;;5032202;28;20076;-81
2023/01/07 09:46:22;;;;;;;2.33;1.00;;;10.30;99.90;;;;;;5030145;28;20025;-84
2023/01/07 09:48:56;;;;;;;1.48;0.95;;;10.40;99.90;;;;;;5031342;28;20048;-81
2023/01/07 09:51:28;;;;;;;2.35;1.20;;;10.30;99.90;;;;;;5031961;28;20036;-84
2023/01/07 09:53:58;;;;;;;2.47;1.17;;;10.30;99.90;;;;;;5034801;28;20356;-80
2023/01/07 09:56:28;;;;;;;1.92;0.80;;;10.30;99.90;;;;;;5034313;28;20075;-82
2023/01/07 09:58:56;;;;;;;1.27;0.93;;;10.40;99.90;;;;;;5034500;28;20029;-83
2023/01/07 10:01:45;;;;;;;3.80;1.10;;;10.40;99.90;;;;;;5027814;28;20029;-80
2023/01/07 10:04:19;;;;;;;1.58;1.10;;;10.50;99.90;;;;;;5030049;28;20416;-80
2023/01/07 10:07:04;;;;;;;0.70;0.70;;;10.50;99.90;;;;;;5033784;28;20121;-81
2023/01/07 10:10:03;;;;;;;1.27;0.70;;;10.50;99.90;;;;;;5032329;28;20128;-81
2023/01/07 10:13:26;;;;;;;3.28;0.90;;;10.60;99.90;;;;;;5032467;28;20432;-85
2023/01/07 10:15:55;;;;;;;2.33;1.30;;;10.60;99.90;;;;;;4969571;28;20427;-81
2023/01/07 10:18:32;;;;;;;3.08;1.20;;;10.70;99.90;;;;;;4971125;28;20030;-81
2023/01/07 10:21:07;;;;;;;1.77;0.98;;;10.70;99.90;;;;;;5002448;28;20049;-80
2023/01/07 10:23:38;;;;;;;2.67;1.15;;;10.70;99.90;;;;;;5034371;28;20060;-80
2023/01/07 10:26:10;;;;;;;2.28;0.68;;;10.70;99.90;;;;;;5034522;28;20524;-80
2023/01/07 10:28:44;;;;;;;1.40;1.00;;;10.80;99.90;;;;;;5031923;28;20116;-79
2023/01/07 10:31:23;;;;;;;1.58;0.93;;;10.80;99.90;;;;;;5031350;28;20033;-81
2023/01/07 10:33:50;;;;;;;0.73;0.68;;;10.80;99.90;;;;;;5030922;28;20017;-80
2023/01/07 10:36:24;;;;;;;7.63;0.85;;;10.90;99.90;;;;;;5034700;28;20182;-78
2023/01/07 10:39:18;;;;;;;0.82;0.70;;;11.00;99.90;;;;;;5030894;28;20056;-85
2023/01/07 10:42:05;;;;;;;1.65;0.80;;;11.00;99.90;;;;;;5032106;28;20053;-79
2023/01/07 10:44:53;;;;;;;0.68;0.60;;;11.00;99.90;;;;;;5036091;28;20033;-79
2023/01/07 10:47:28;;;;;;;1.00;0.90;;;11.10;99.90;;;;;;5034786;28;20029;-80
2023/01/07 10:49:56;;;;;;;2.85;0.98;;;11.30;99.90;;;;;;5027159;28;20025;-86
2023/01/07 10:52:25;;;;;;;0.70;0.57;;;11.40;99.90;;;;;;5032620;28;20367;-81
2023/01/07 10:55:28;;;;;;;1.15;0.63;;;11.40;99.90;;;;;;5032765;28;20025;-81
2023/01/07 10:57:54;;;;;;;1.23;0.57;;;11.40;99.90;;;;;;5032855;28;20036;-82
2023/01/07 11:00:20;;;;;;;1.80;0.47;;;11.30;99.90;;;;;;5032278;28;20029;-80
2023/01/07 11:02:52;;;;;;;0.97;0.70;;;11.30;99.90;;;;;;5030378;28;20155;-79
2023/01/07 11:05:20;;;;;;;3.38;1.10;;;11.40;99.90;;;;;;5027691;28;20045;-82
2023/01/07 11:07:47;;;;;;;2.05;0.68;;;11.50;99.90;;;;;;5029844;28;20036;-79
2023/01/07 11:10:23;;;;;;;4.07;0.77;;;11.50;99.90;;;;;;5026314;28;20021;-80
2023/01/07 11:12:50;;;;;;;1.37;0.90;;;11.50;99.90;;;;;;5033772;28;20100;-81
2023/01/07 11:15:19;;;;;;;4.00;0.90;;;11.70;99.90;;;;;;5032323;28;20382;-81
2023/01/07 11:17:53;;;;;;;1.13;0.60;;;11.80;99.90;;;;;;5033975;28;20037;-79
2023/01/07 11:20:54;;;;;;;1.50;0.80;;;11.80;99.90;;;;;;5027160;28;20022;-79
2023/01/07 11:23:40;;;;;;;2.67;0.77;;;11.90;99.90;;;;;;5030022;28;20120;-82
2023/01/07 11:26:26;;;;;;;0.93;0.80;;;11.90;99.90;;;;;;5031364;28;20156;-79
2023/01/07 11:29:14;;;;;;;2.30;0.70;;;11.90;99.90;;;;;;5027157;28;20029;-81
2023/01/07 11:31:54;;;;;;;0.75;0.75;;;11.80;99.90;;;;;;5028246;28;20123;-83
2023/01/07 11:34:35;;;;;;;1.55;1.00;;;11.80;99.90;;;;;;5031347;28;20028;-80
2023/01/07 11:37:03;;;;;;;7.38;1.33;;;11.80;99.90;;;;;;5032102;28;20028;-80
2023/01/07 11:39:34;;;;;;;1.13;0.93;;;11.70;99.90;;;;;;5037266;28;20462;-81
2023/01/07 11:42:38;;;;;;;1.02;0.60;;;11.80;99.90;;;;;;5034256;28;20152;-82
2023/01/07 11:45:07;;;;;;;2.70;1.00;;;11.80;99.90;;;;;;5032075;28;20033;-80
2023/01/07 11:47:33;;;;;;;0.68;0.52;;;11.80;99.90;;;;;;5030000;28;20045;-79
2023/01/07 11:49:58;;;;;;;1.27;0.60;;;11.80;99.90;;;;;;5033491;28;20021;-80
2023/01/07 11:52:24;;;;;;;4.72;0.80;;;11.80;99.90;;;;;;5032740;28;20342;-82
2023/01/07 11:54:50;;;;;;;1.20;0.67;;;11.80;99.90;;;;;;5029770;28;20036;-83
2023/01/07 11:57:25;;;;;;;0.85;0.75;;;11.80;99.90;;;;;;5028587;28;20029;-83
2023/01/07 12:00:12;;;;;;;1.52;0.75;;;11.80;99.90;;;;;;5029238;28;20420;-81
2023/01/07 12:02:38;;;;;;;7.80;0.93;;;11.80;99.90;;;;;;5028663;28;20116;-81
2023/01/07 12:05:36;;;;;;;3.80;0.77;;;11.70;99.90;;;;;;5031775;28;20112;-81
2023/01/07 12:08:04;;;;;;;9.82;3.63;;;11.60;99.90;;;;;;4954726;28;20046;-80
2023/01/07 12:10:34;;;;;;;1.58;1.33;;;11.60;99.90;;;;;;4958248;28;20030;-80
2023/01/07 12:13:03;;;;;;;1.17;1.08;;;11.60;99.90;;;;;;4968794;28;20023;-78
2023/01/07 12:15:36;;;;;;;0.90;0.73;;;11.60;99.90;;;;;;4957227;28;20023;-79
2023/01/07 12:18:07;;;;;;;0.70;0.63;;;11.60;99.90;;;;;;4970519;28;20039;-83
2023/01/07 12:20:33;;;;;;;2.05;0.90;;;11.60;99.90;;;;;;4967897;28;20102;-82
2023/01/07 12:23:41;;;;;;;1.97;1.27;;;11.60;99.90;;;;;;4957827;28;20034;-78
2023/01/07 12:26:22;;;;;;;7.95;7.22;;;11.50;99.90;;;;;;4974713;28;20027;-81
2023/01/07 12:29:03;;;;;;;1.10;1.00;;;11.50;99.90;;;;;;4968460;28;20038;-79
2023/01/07 12:32:00;;;;;;;3.63;1.42;;;11.50;99.90;;;;;;4957640;28;20043;-80
2023/01/07 12:34:41;;;;;;;1.40;1.30;;;11.50;99.90;;;;;;4954552;28;20038;-83
2023/01/07 12:37:21;;;;;;;3.22;1.35;;;11.40;99.90;;;;;;4969085;28;20042;-81
2023/01/07 12:39:50;;;;;;;13.10;11.00;;;11.40;99.90;;;;;;4972663;28;20031;-81
2023/01/07 12:42:23;;;;;;;8.50;4.10;;;11.40;99.90;;;;;;4972376;28;20058;-79
2023/01/07 12:44:55;;;;;;;1.85;1.27;;;11.40;99.90;;;;;;5028538;28;20063;-81
2023/01/07 12:47:28;;;;;;;2.08;1.70;;;11.40;99.90;;;;;;5026484;28;20034;-79
2023/01/07 12:50:00;;;;;;;1.60;1.38;;;11.40;99.90;;;;;;5028714;28;20353;-79
2023/01/07 12:52:48;;;;;;;1.92;1.15;;;11.30;99.90;;;;;;5021320;28;20034;-80
2023/01/07 12:55:29;;;;;;;5.88;1.70;;;11.30;99.90;;;;;;5032675;28;20047;-78
2023/01/07 12:58:21;;;;;;;1.70;1.13;;;11.30;99.90;;;;;;5032745;28;20025;-81
2023/01/07 13:00:58;;;;;;;1.70;1.10;;;11.30;99.90;;;;;;5034640;28;20021;-79
2023/01/07 13:04:02;;;;;;;1.67;1.30;;;11.30;99.90;;;;;;5034987;28;20359;-80